Time;durP1;ratioP1;P1;durP2;ratioP2;P2;SDS_P1;SDS_P2;PMS_P1;PMS_P2;Temp;Humidity;BMP_temperature;BMP_pressure;BME280_temperature;BME280_humidity;BME280_pressure;Samples;Min_cycle;Max_cycle;Signal;HPM_P1;HPM_P2
2023/03/18 00:00:38;;;;;;;13.50;7.10;;;;;;;11.44;76.68;100668.94;4947426;28;20545;-75
2023/03/18 00:03:05;;;;;;;13.85;7.25;;;;;;;11.48;76.93;100662.28;4971480;28;20034;-74
2023/03/18 00:05:34;;;;;;;13.18;7.35;;;;;;;11.46;76.48;100647.03;4949745;29;20031;-74
2023/03/18 00:08:01;;;;;;;13.07;7.15;;;;;;;11.46;76.62;100655.19;4952737;28;20040;-75
2023/03/18 00:10:27;;;;;;;18.52;7.10;;;;;;;11.46;76.95;100655.19;4954872;28;20058;-74
2023/03/18 00:12:53;;;;;;;16.75;7.75;;;;;;;11.45;76.92;100654.31;4971864;28;20097;-74
2023/03/18 00:15:19;;;;;;;14.48;7.28;;;;;;;11.45;76.98;100658.91;4958075;28;20046;-75
2023/03/18 00:17:47;;;;;;;13.15;7.28;;;;;;;11.41;77.62;100662.88;4951299;29;20030;-74
2023/03/18 00:20:15;;;;;;;14.95;8.73;;;;;;;11.37;77.43;100664.94;4951083;28;20050;-75
2023/03/18 00:22:42;;;;;;;13.50;7.45;;;;;;;11.36;77.31;100671.41;4952227;28;20043;-75
2023/03/18 00:25:09;;;;;;;12.13;7.00;;;;;;;11.35;77.12;100668.81;4951882;28;20039;-75
2023/03/18 00:27:35;;;;;;;14.68;7.03;;;;;;;11.35;77.57;100666.94;4952243;29;20483;-75
2023/03/18 00:30:03;;;;;;;13.85;7.85;;;;;;;11.36;77.87;100671.41;4948885;29;20031;-75
2023/03/18 00:32:29;;;;;;;10.85;7.05;;;;;;;11.32;77.58;100669.91;4951404;29;20075;-75
2023/03/18 00:34:55;;;;;;;19.77;7.85;;;;;;;11.34;78.49;100669.78;4953107;28;20834;-74
2023/03/18 00:37:29;;;;;;;12.98;7.38;;;;;;;11.34;77.88;100670.66;4965674;28;20058;-75
2023/03/18 00:39:57;;;;;;;12.65;6.78;;;;;;;11.33;78.10;100692.56;4948633;29;20134;-74
2023/03/18 00:42:22;;;;;;;13.25;7.13;;;;;;;11.33;78.34;100693.44;4956235;28;20399;-75
2023/03/18 00:44:48;;;;;;;16.00;7.85;;;;;;;11.32;78.36;100688.09;4949854;28;20039;-75
2023/03/18 00:47:13;;;;;;;14.32;6.93;;;;;;;11.36;78.42;100686.88;4932991;29;20147;-75
2023/03/18 00:49:39;;;;;;;12.23;7.10;;;;;;;11.34;77.80;100684.28;4948642;29;20035;-75
2023/03/18 00:52:05;;;;;;;13.77;7.47;;;;;;;11.34;78.43;100687.00;4948237;29;20067;-75
2023/03/18 00:54:32;;;;;;;11.57;6.68;;;;;;;11.29;77.82;100685.63;4932939;29;20065;-75
2023/03/18 00:56:57;;;;;;;17.42;7.72;;;;;;;11.32;78.88;100693.53;4948061;28;20070;-75
2023/03/18 00:59:23;;;;;;;17.15;8.18;;;;;;;11.31;78.41;100700.84;4932418;29;20503;-75
2023/03/18 01:01:48;;;;;;;13.35;8.00;;;;;;;11.29;78.15;100694.66;4948958;28;20066;-75
2023/03/18 01:04:14;;;;;;;11.38;7.28;;;;;;;11.25;78.51;100698.63;4948206;28;20073;-75
2023/03/18 01:06:40;;;;;;;14.15;7.78;;;;;;;11.23;78.79;100693.25;4947649;28;20035;-75
2023/03/18 01:09:10;;;;;;;15.98;7.45;;;;;;;11.22;78.72;100690.66;4932334;29;20046;-75
2023/03/18 01:11:35;;;;;;;12.93;7.00;;;;;;;11.24;78.99;100691.44;4947799;29;20130;-76
2023/03/18 01:14:02;;;;;;;17.25;7.30;;;;;;;11.25;78.85;100695.88;4950267;29;20228;-75
2023/03/18 01:16:28;;;;;;;16.33;7.55;;;;;;;11.22;78.95;100693.38;4945816;29;20129;-76
2023/03/18 01:18:54;;;;;;;13.73;7.43;;;;;;;11.17;79.80;100685.59;4949312;28;20023;-75
2023/03/18 01:21:20;;;;;;;15.52;7.47;;;;;;;11.17;79.99;100685.59;4947878;29;20632;-75
2023/03/18 01:23:50;;;;;;;15.85;7.78;;;;;;;11.21;80.90;100683.50;4945766;28;20118;-75
2023/03/18 01:26:16;;;;;;;11.52;7.50;;;;;;;11.19;80.42;100683.63;4947861;28;20122;-75
2023/03/18 01:28:43;;;;;;;15.20;7.85;;;;;;;11.21;80.95;100687.09;4950643;28;20038;-75
2023/03/18 01:31:09;;;;;;;15.27;7.82;;;;;;;11.21;80.64;100686.22;4948236;28;20035;-75
2023/03/18 01:33:35;;;;;;;16.27;7.63;;;;;;;11.18;81.88;100687.31;4947941;29;20047;-75
2023/03/18 01:36:02;;;;;;;17.77;7.82;;;;;;;11.20;81.51;100690.81;4949232;28;20086;-75
2023/03/18 01:38:30;;;;;;;17.95;8.23;;;;;;;11.19;82.79;100689.06;4946815;29;20089;-75
2023/03/18 01:41:03;;;;;;;15.43;7.68;;;;;;;11.18;81.87;100687.31;4931048;29;20034;-75
2023/03/18 01:43:32;;;;;;;18.67;8.27;;;;;;;11.19;83.18;100690.91;4947227;28;20404;-75
2023/03/18 01:46:00;;;;;;;15.50;7.63;;;;;;;11.18;84.32;100684.59;4947501;28;20407;-76
2023/03/18 01:48:30;;;;;;;16.25;7.70;;;;;;;11.17;84.34;100685.59;4948188;29;20364;-75
2023/03/18 01:51:07;;;;;;;16.27;8.60;;;;;;;11.15;85.20;100683.97;4947627;29;20065;-75
2023/03/18 01:53:38;;;;;;;17.33;8.40;;;;;;;11.11;86.11;100682.47;4947093;28;20027;-75
2023/03/18 01:56:05;;;;;;;15.88;8.73;;;;;;;11.07;86.95;100684.56;4948176;29;20057;-76
2023/03/18 01:58:36;;;;;;;20.00;9.48;;;;;;;11.06;87.54;100681.97;4931688;28;20059;-76
2023/03/18 02:01:08;;;;;;;16.00;9.45;;;;;;;11.02;87.16;100684.06;4947067;28;20055;-77
2023/03/18 02:03:37;;;;;;;18.05;8.80;;;;;;;11.03;88.46;100693.09;4951116;28;20038;-76
2023/03/18 02:06:03;;;;;;;18.42;8.88;;;;;;;10.99;89.62;100681.56;4949147;28;20027;-77
2023/03/18 02:08:29;;;;;;;15.13;8.80;;;;;;;10.97;89.62;100683.53;4948591;28;20114;-77
2023/03/18 02:10:54;;;;;;;21.58;10.73;;;;;;;10.96;91.22;100684.53;4946645;29;20035;-76
2023/03/18 02:13:20;;;;;;;17.45;10.35;;;;;;;10.92;91.24;100683.91;4946248;28;20560;-76
2023/03/18 02:15:54;;;;;;;23.05;10.40;;;;;;;10.90;91.50;100687.69;4946692;28;20035;-76
2023/03/18 02:18:22;;;;;;;;;;;;;;;10.93;87.76;100680.19;4947608;29;20035;-76
2023/03/18 02:21:14;;;;;;;20.95;10.23;;;;;;;10.89;92.14;100685.97;4946964;29;19918;-76
2023/03/18 02:23:47;;;;;;;;;;;;;;;10.90;87.86;100690.44;4947617;28;20523;-76
2023/03/18 02:26:54;;;;;;;19.13;10.65;;;;;;;10.83;91.18;100691.91;4946335;29;20235;-75
2023/03/18 02:29:35;;;;;;;16.13;10.63;;;;;;;10.81;91.64;100694.72;4947524;29;20129;-76
2023/03/18 02:32:06;;;;;;;23.63;10.25;;;;;;;10.79;93.60;100704.84;4947865;28;20031;-76
2023/03/18 02:34:35;;;;;;;18.48;11.30;;;;;;;10.76;94.36;100704.22;4949136;29;20395;-77
2023/03/18 02:37:00;;;;;;;18.17;10.70;;;;;;;10.70;93.98;100705.56;4947589;28;20082;-77
2023/03/18 02:39:28;;;;;;;19.70;10.68;;;;;;;10.70;96.02;100711.84;4947248;28;20039;-76
2023/03/18 02:41:55;;;;;;;17.50;10.52;;;;;;;10.67;95.93;100711.22;4945975;29;20074;-77
2023/03/18 02:44:21;;;;;;;18.65;10.18;;;;;;;10.66;95.70;100712.19;4948763;28;20039;-78
2023/03/18 02:47:10;;;;;;;24.50;11.85;;;;;;;10.65;96.17;100718.63;4960020;28;20485;-78
2023/03/18 02:49:36;;;;;;;19.92;11.02;;;;;;;10.62;96.10;100719.72;4954551;28;20046;-78
2023/03/18 02:52:02;;;;;;;23.05;11.85;;;;;;;10.62;96.60;100716.13;4954680;28;20176;-77
2023/03/18 02:54:29;;;;;;;24.00;11.70;;;;;;;10.60;95.68;100721.69;4951195;29;20085;-77
2023/03/18 02:56:55;;;;;;;19.20;10.82;;;;;;;10.59;96.13;100719.97;4951080;28;20519;-77
2023/03/18 02:59:21;;;;;;;20.83;11.95;;;;;;;10.57;96.79;100724.63;4935296;29;20039;-77
2023/03/18 03:01:49;;;;;;;19.17;11.18;;;;;;;10.58;96.02;100734.53;4951698;28;20419;-77
2023/03/18 03:04:16;;;;;;;18.30;11.18;;;;;;;10.55;96.75;100731.19;4950952;28;20499;-77
2023/03/18 03:06:43;;;;;;;21.58;10.85;;;;;;;10.56;97.43;100733.78;4950302;28;20058;-77
2023/03/18 03:09:12;;;;;;;22.35;11.35;;;;;;;10.50;97.55;100734.25;4952052;28;20537;-78
2023/03/18 03:11:39;;;;;;;21.17;11.40;;;;;;;10.53;96.10;100734.00;4952564;28;20058;-79
2023/03/18 03:14:12;;;;;;;21.23;12.02;;;;;;;10.52;97.75;100737.72;4949538;29;20054;-79
2023/03/18 03:16:37;;;;;;;23.48;12.38;;;;;;;10.44;99.78;100732.84;4946153;29;20118;-79
2023/03/18 03:19:04;;;;;;;22.52;11.90;;;;;;;10.50;98.95;100745.13;4950465;29;20134;-79
2023/03/18 03:21:31;;;;;;;20.23;11.30;;;;;;;10.51;97.73;100746.88;4950760;28;20043;-77
2023/03/18 03:23:57;;;;;;;26.35;12.98;;;;;;;10.50;98.38;100749.69;4949706;29;20070;-77
2023/03/18 03:26:22;;;;;;;25.05;12.88;;;;;;;10.48;99.36;100745.22;4950488;29;20106;-77
2023/03/18 03:28:48;;;;;;;32.03;13.00;;;;;;;10.49;99.56;100751.53;4950675;29;20053;-76
2023/03/18 03:31:13;;;;;;;20.23;11.95;;;;;;;10.49;98.79;100748.81;4948933;29;20463;-78
2023/03/18 03:33:42;;;;;;;23.23;13.35;;;;;;;10.51;99.69;100748.72;4952238;29;20027;-77
2023/03/18 03:36:15;;;;;;;27.38;12.63;;;;;;;10.48;99.51;100752.50;4951920;29;20558;-77
2023/03/18 03:38:42;;;;;;;20.17;12.82;;;;;;;10.48;99.90;100749.78;4947693;29;20039;-77
2023/03/18 03:41:09;;;;;;;22.60;12.48;;;;;;;10.49;100.00;100765.13;4949562;29;20027;-77
2023/03/18 03:43:39;;;;;;;27.38;12.57;;;;;;;10.46;99.54;100752.63;4935634;29;20035;-77
2023/03/18 03:46:05;;;;;;;18.05;11.60;;;;;;;10.47;99.33;100748.06;4950785;28;20039;-78
2023/03/18 03:48:31;;;;;;;21.27;12.05;;;;;;;10.48;98.74;100750.66;4950829;29;20042;-76
2023/03/18 03:50:57;;;;;;;25.20;14.27;;;;;;;10.46;98.15;100749.91;4950733;29;20118;-77
2023/03/18 03:53:23;;;;;;;27.42;12.75;;;;;;;10.48;98.17;100755.22;4948778;29;20436;-77
2023/03/18 03:55:50;;;;;;;21.27;11.90;;;;;;;10.41;97.65;100749.38;4949352;28;20039;-77
2023/03/18 03:58:15;;;;;;;25.48;11.90;;;;;;;10.43;98.98;100754.72;4948577;28;20035;-78
2023/03/18 04:00:42;;;;;;;26.05;12.32;;;;;;;10.39;99.52;100756.78;4945841;28;20573;-78
2023/03/18 04:03:07;;;;;;;22.52;11.32;;;;;;;10.40;99.32;100754.94;4931002;29;20123;-77
2023/03/18 04:05:33;;;;;;;23.95;11.88;;;;;;;10.39;99.09;100764.06;4930141;29;20028;-77
2023/03/18 04:07:59;;;;;;;24.75;12.90;;;;;;;10.38;99.02;100754.19;4946770;28;20758;-77
2023/03/18 04:10:35;;;;;;;28.02;14.07;;;;;;;10.37;99.54;100758.75;4929971;29;20035;-78
2023/03/18 04:13:02;;;;;;;22.35;13.60;;;;;;;10.38;99.09;100768.63;4946104;28;20032;-78
2023/03/18 04:15:28;;;;;;;24.40;13.75;;;;;;;10.38;99.47;100765.91;4946523;28;20035;-78
2023/03/18 04:17:54;;;;;;;21.02;12.75;;;;;;;10.37;100.00;100763.31;4930814;29;20399;-77
2023/03/18 04:20:20;;;;;;;23.40;12.18;;;;;;;10.38;99.64;100768.63;4946109;29;20035;-77
2023/03/18 04:22:46;;;;;;;21.92;13.43;;;;;;;10.36;100.00;100758.88;4928127;29;20102;-77
2023/03/18 04:25:13;;;;;;;26.45;13.95;;;;;;;10.38;100.00;100760.47;4945553;29;20040;-77
2023/03/18 04:27:40;;;;;;;19.45;12.13;;;;;;;10.31;100.00;100759.22;4929650;29;20046;-77
2023/03/18 04:30:10;;;;;;;22.35;13.85;;;;;;;10.34;100.00;100761.69;4945825;28;20033;-78
2023/03/18 04:32:46;;;;;;;30.60;13.40;;;;;;;10.34;100.00;100769.84;4946480;29;20385;-78
2023/03/18 04:35:12;;;;;;;24.13;13.43;;;;;;;10.33;99.78;100767.25;4931900;29;20035;-78
2023/03/18 04:37:37;;;;;;;25.67;13.00;;;;;;;10.35;100.00;100768.00;4928353;29;20452;-77
2023/03/18 04:40:05;;;;;;;27.45;13.93;;;;;;;10.33;100.00;100768.09;4929247;29;20039;-78
2023/03/18 04:42:30;;;;;;;27.58;14.85;;;;;;;10.32;100.00;100773.66;4930028;29;20032;-77
2023/03/18 04:44:56;;;;;;;26.13;12.45;;;;;;;10.32;100.00;100771.81;4930107;29;20058;-78
2023/03/18 04:47:22;;;;;;;26.58;13.18;;;;;;;10.31;100.00;100775.53;4930036;29;20063;-78
2023/03/18 04:49:49;;;;;;;24.05;14.02;;;;;;;10.30;100.00;100784.63;4929874;29;20480;-78
2023/03/18 04:52:16;;;;;;;23.35;13.40;;;;;;;10.29;100.00;100791.06;4930928;29;20046;-77
2023/03/18 04:54:42;;;;;;;20.80;12.73;;;;;;;10.31;100.00;100789.13;4913941;29;20032;-78
2023/03/18 04:57:08;;;;;;;23.02;12.73;;;;;;;10.30;100.00;100786.50;4928493;29;20023;-78
2023/03/18 04:59:38;;;;;;;27.17;14.38;;;;;;;10.31;100.00;100788.25;4945714;29;20047;-79
2023/03/18 05:02:05;;;;;;;25.25;13.82;;;;;;;10.30;100.00;100786.50;4929434;29;20455;-78
2023/03/18 05:04:32;;;;;;;28.52;14.50;;;;;;;10.29;100.00;100795.63;4929311;29;20110;-78
2023/03/18 05:06:58;;;;;;;26.08;14.98;;;;;;;10.28;100.00;100796.63;4914407;29;20118;-77
2023/03/18 05:09:30;;;;;;;23.80;13.63;;;;;;;10.27;100.00;100800.31;4929064;29;20032;-78
2023/03/18 05:11:56;;;;;;;23.98;14.02;;;;;;;10.26;100.00;100798.56;4927578;29;20044;-77
2023/03/18 05:14:34;;;;;;;26.50;13.82;;;;;;;10.27;100.00;100800.31;4944520;29;20431;-78
2023/03/18 05:17:00;;;;;;;30.52;14.68;;;;;;;10.27;100.00;100803.91;4929675;29;20147;-77
2023/03/18 05:19:27;;;;;;;30.52;14.82;;;;;;;10.26;100.00;100802.19;4945696;29;20062;-78
2023/03/18 05:22:02;;;;;;;28.23;13.13;;;;;;;10.25;100.00;100785.97;4929481;29;20506;-77
2023/03/18 05:24:28;;;;;;;26.40;14.10;;;;;;;10.29;100.00;100799.22;4943100;29;20031;-77
2023/03/18 05:26:54;;;;;;;27.17;14.25;;;;;;;10.28;100.00;100796.63;4926902;29;20475;-77
2023/03/18 05:29:22;;;;;;;26.60;13.80;;;;;;;10.28;100.00;100793.91;4929116;29;20054;-77
2023/03/18 05:32:05;;;;;;;22.90;13.45;;;;;;;10.28;100.00;100794.78;4928879;29;20046;-78
2023/03/18 05:34:36;;;;;;;25.52;13.15;;;;;;;10.21;100.00;100783.44;4929536;29;20035;-78
2023/03/18 05:37:04;;;;;;;29.38;13.77;;;;;;;10.19;100.00;100796.25;4944915;29;20042;-77
2023/03/18 05:39:31;;;;;;;23.55;13.18;;;;;;;10.14;100.00;100781.28;4944036;29;20047;-78
2023/03/18 05:41:57;;;;;;;25.83;11.63;;;;;;;10.11;100.00;100784.19;4928498;29;20039;-79
2023/03/18 05:44:25;;;;;;;22.92;12.73;;;;;;;10.07;100.00;100786.28;4913937;29;20053;-78
2023/03/18 05:46:53;;;;;;;22.02;12.98;;;;;;;10.05;100.00;100790.94;4928428;29;20558;-79
2023/03/18 05:49:39;;;;;;;23.05;13.25;;;;;;;10.04;100.00;100797.38;4944944;29;20035;-78
2023/03/18 05:52:20;;;;;;;20.67;12.10;;;;;;;10.05;100.00;100811.81;4930479;29;20031;-78
2023/03/18 05:54:48;;;;;;;25.02;13.27;;;;;;;10.05;100.00;100820.84;4928478;29;20035;-79
2023/03/18 05:57:19;;;;;;;29.08;13.38;;;;;;;10.05;100.00;100826.28;4941297;28;20491;-79
2023/03/18 05:59:45;;;;;;;26.13;14.18;;;;;;;10.05;100.00;100825.41;4945004;28;20106;-77
2023/03/18 06:02:11;;;;;;;23.60;14.23;;;;;;;10.02;100.00;100831.06;4931603;29;20035;-77
2023/03/18 06:04:37;;;;;;;25.58;12.60;;;;;;;9.99;100.00;100829.44;4947682;28;20127;-77
2023/03/18 06:07:04;;;;;;;21.52;12.88;;;;;;;9.97;100.00;100834.97;4947562;28;20111;-78
2023/03/18 06:09:33;;;;;;;23.13;13.07;;;;;;;9.99;100.00;100836.72;4921507;29;20126;-77
2023/03/18 06:11:58;;;;;;;23.52;13.45;;;;;;;9.98;100.00;100838.56;4931262;29;20035;-77
2023/03/18 06:14:28;;;;;;;27.02;13.25;;;;;;;9.97;100.00;100842.25;4948682;28;20078;-78
2023/03/18 06:16:55;;;;;;;24.35;12.70;;;;;;;9.97;100.00;100831.38;4946090;29;20023;-78
2023/03/18 06:19:20;;;;;;;24.92;13.38;;;;;;;9.95;100.00;100836.94;4931878;29;20118;-77
2023/03/18 06:21:46;;;;;;;20.88;12.25;;;;;;;9.94;100.00;100835.19;4959488;28;20125;-78
2023/03/18 06:24:13;;;;;;;25.08;12.18;;;;;;;9.96;100.00;100838.66;4949473;28;20118;-77
2023/03/18 06:26:39;;;;;;;20.08;11.88;;;;;;;9.92;100.00;100838.97;4948701;28;20034;-77
2023/03/18 06:29:05;;;;;;;22.40;12.02;;;;;;;9.92;100.00;100833.53;4950400;28;20114;-78
2023/03/18 06:31:33;;;;;;;21.27;12.38;;;;;;;9.91;100.00;100832.69;4949101;28;20066;-75
2023/03/18 06:33:58;;;;;;;24.65;12.75;;;;;;;9.91;100.00;100826.38;4950923;28;20035;-78
2023/03/18 06:36:23;;;;;;;21.00;11.75;;;;;;;9.89;100.00;100831.06;4948909;28;20034;-77
2023/03/18 06:38:50;;;;;;;30.27;12.85;;;;;;;9.96;100.00;100838.66;4946187;29;20039;-76
2023/03/18 06:41:17;;;;;;;21.55;12.18;;;;;;;10.47;100.00;100840.53;4945940;28;20581;-76
2023/03/18 06:44:02;;;;;;;22.48;12.98;;;;;;;11.36;97.59;100840.28;4956286;28;20402;-77
2023/03/18 06:46:29;;;;;;;20.30;11.13;;;;;;;11.87;92.80;100856.34;4962273;28;20513;-78
2023/03/18 06:48:54;;;;;;;21.08;11.98;;;;;;;11.85;92.52;100857.50;4966025;28;20109;-78
2023/03/18 06:51:25;;;;;;;20.23;10.75;;;;;;;11.75;92.91;100850.00;4964516;28;20081;-78
2023/03/18 06:53:52;;;;;;;17.83;11.00;;;;;;;11.75;92.04;100865.47;4948263;28;20647;-77
2023/03/18 06:56:17;;;;;;;19.85;10.88;;;;;;;11.54;92.77;100857.06;4964715;28;20106;-76
2023/03/18 06:58:53;;;;;;;22.08;10.98;;;;;;;11.40;93.64;100858.13;4966048;28;20042;-78
2023/03/18 07:01:19;;;;;;;19.88;10.88;;;;;;;11.56;93.29;100860.53;4929171;29;20411;-77
2023/03/18 07:03:45;;;;;;;18.17;11.80;;;;;;;11.61;92.79;100860.19;4946730;29;20530;-77
2023/03/18 07:06:12;;;;;;;22.67;12.85;;;;;;;11.56;93.00;100868.72;4946851;29;20119;-77
2023/03/18 07:08:39;;;;;;;17.10;11.50;;;;;;;11.71;92.45;100873.00;4942782;28;20093;-77
2023/03/18 07:11:06;;;;;;;18.30;11.23;;;;;;;11.92;91.90;100875.09;4949496;28;20430;-77
2023/03/18 07:13:33;;;;;;;26.10;12.95;;;;;;;12.17;91.13;100871.31;4960218;28;20114;-77
2023/03/18 07:15:59;;;;;;;16.83;10.75;;;;;;;12.56;89.06;100877.31;4948458;28;20443;-77
2023/03/18 07:18:26;;;;;;;18.75;11.38;;;;;;;13.07;86.73;100877.66;4950696;28;20066;-77
2023/03/18 07:20:52;;;;;;;19.67;12.95;;;;;;;13.46;84.85;100883.56;4963168;28;20649;-78
2023/03/18 07:23:20;;;;;;;20.55;11.05;;;;;;;13.59;83.86;100880.69;4947748;28;20055;-78
2023/03/18 07:25:47;;;;;;;18.67;11.20;;;;;;;13.58;82.95;100887.16;4946633;29;20035;-78
2023/03/18 07:28:13;;;;;;;18.55;11.52;;;;;;;13.26;84.02;100883.38;4946664;29;20085;-78
2023/03/18 07:30:38;;;;;;;20.42;11.63;;;;;;;13.24;84.65;100889.94;4933987;29;20106;-78
2023/03/18 07:33:04;;;;;;;18.65;11.25;;;;;;;13.25;84.44;100881.66;4931777;29;20039;-77
2023/03/18 07:35:29;;;;;;;16.02;11.30;;;;;;;13.29;83.55;100890.47;4953443;28;20033;-78
2023/03/18 07:37:56;;;;;;;18.75;11.50;;;;;;;13.70;81.92;100897.91;4948301;28;20035;-77
2023/03/18 07:40:21;;;;;;;20.30;11.70;;;;;;;14.14;80.46;100890.50;4952984;28;20565;-77
2023/03/18 07:42:47;;;;;;;19.05;11.30;;;;;;;14.27;79.85;100896.63;4962421;28;20035;-78
2023/03/18 07:45:12;;;;;;;16.85;10.45;;;;;;;14.40;79.31;100906.50;4966151;28;20035;-78
2023/03/18 07:47:38;;;;;;;16.30;10.55;;;;;;;14.46;78.69;100915.06;4953545;28;20392;-78
2023/03/18 07:50:04;;;;;;;16.42;10.20;;;;;;;14.45;79.44;100907.81;4948818;29;20038;-78
2023/03/18 07:52:30;;;;;;;17.77;10.27;;;;;;;14.64;78.35;100917.19;4959118;28;20148;-77
2023/03/18 07:54:55;;;;;;;18.20;10.45;;;;;;;14.80;77.57;100917.56;4963469;28;20113;-77
2023/03/18 07:57:21;;;;;;;17.05;10.05;;;;;;;14.70;79.34;100923.00;4967913;28;20147;-78
2023/03/18 07:59:46;;;;;;;13.85;9.75;;;;;;;14.49;78.59;100920.28;4951176;28;20050;-77
2023/03/18 08:02:14;;;;;;;16.05;10.45;;;;;;;14.49;79.45;100925.75;4955224;28;20110;-78
2023/03/18 08:04:42;;;;;;;15.35;10.32;;;;;;;14.35;78.73;100926.06;4958080;28;20480;-77
2023/03/18 08:07:08;;;;;;;16.13;10.38;;;;;;;14.28;79.51;100919.41;4934337;29;20502;-78
2023/03/18 08:09:34;;;;;;;14.30;9.90;;;;;;;14.42;79.81;100912.72;4959437;28;20131;-78
2023/03/18 08:11:59;;;;;;;14.90;8.93;;;;;;;14.40;80.24;100906.50;4970205;28;20126;-77
2023/03/18 08:14:25;;;;;;;14.48;9.65;;;;;;;14.33;80.77;100903.44;4948900;29;20039;-77
2023/03/18 08:16:51;;;;;;;15.88;9.73;;;;;;;14.57;80.14;100907.78;4950760;28;20477;-78
2023/03/18 08:19:16;;;;;;;15.13;8.70;;;;;;;14.77;79.11;100898.66;4949808;29;20046;-77
2023/03/18 08:21:42;;;;;;;12.68;8.85;;;;;;;15.03;78.50;100894.47;4949237;28;20356;-78
2023/03/18 08:24:08;;;;;;;12.80;8.48;;;;;;;15.31;78.68;100891.94;4950442;28;20101;-78
2023/03/18 08:26:34;;;;;;;10.90;8.27;;;;;;;15.11;76.43;100899.25;4932372;29;20066;-77
2023/03/18 08:29:00;;;;;;;11.43;7.82;;;;;;;14.87;75.30;100893.22;4951636;28;20023;-76
2023/03/18 08:31:25;;;;;;;10.38;6.93;;;;;;;14.68;76.15;100904.97;4948871;28;20039;-77
2023/03/18 08:33:53;;;;;;;12.70;7.93;;;;;;;14.70;77.73;100895.63;4950894;29;20352;-77
2023/03/18 08:36:19;;;;;;;11.73;7.30;;;;;;;14.76;76.90;100899.69;4948845;28;20265;-77
2023/03/18 08:38:44;;;;;;;10.80;7.75;;;;;;;14.58;77.41;100904.91;4950552;28;20039;-76
2023/03/18 08:41:10;;;;;;;11.65;7.72;;;;;;;14.54;78.37;100907.03;4946660;28;20115;-77
2023/03/18 08:43:35;;;;;;;12.75;7.10;;;;;;;14.61;78.93;100912.00;4968094;28;20235;-77
2023/03/18 08:46:01;;;;;;;9.18;6.80;;;;;;;14.58;76.88;100906.78;4959111;28;20136;-76
2023/03/18 08:48:27;;;;;;;10.38;7.15;;;;;;;14.64;78.00;100908.97;4949189;29;20066;-77
2023/03/18 08:50:52;;;;;;;9.65;7.35;;;;;;;14.68;77.44;100913.19;4948868;28;20039;-77
2023/03/18 08:53:18;;;;;;;10.90;7.25;;;;;;;14.87;78.56;100909.66;4948934;28;20127;-76
2023/03/18 08:55:43;;;;;;;11.98;6.90;;;;;;;15.11;78.07;100912.06;4948443;29;20065;-78
2023/03/18 08:58:09;;;;;;;11.88;7.25;;;;;;;15.01;76.50;100912.03;4949528;28;20395;-77
2023/03/18 09:00:36;;;;;;;11.73;7.55;;;;;;;14.98;75.10;100910.44;4948121;28;20127;-77
2023/03/18 09:03:02;;;;;;;10.98;6.93;;;;;;;14.95;75.87;100899.75;4950520;29;20089;-78
2023/03/18 09:05:29;;;;;;;11.75;7.05;;;;;;;14.94;75.98;100916.34;4967579;28;20390;-77
2023/03/18 09:07:55;;;;;;;10.32;6.75;;;;;;;14.84;76.57;100920.91;4964179;28;20475;-78
2023/03/18 09:10:20;;;;;;;12.48;7.07;;;;;;;14.96;76.92;100923.41;4948750;28;20038;-77
2023/03/18 09:12:46;;;;;;;12.25;7.45;;;;;;;14.89;76.38;100914.03;4949046;28;20071;-77
2023/03/18 09:15:13;;;;;;;13.32;7.22;;;;;;;14.76;77.75;100933.41;4958418;28;20081;-77
2023/03/18 09:17:39;;;;;;;10.38;6.65;;;;;;;14.71;77.41;100932.94;4949748;28;20059;-77
2023/03/18 09:20:07;;;;;;;9.57;5.85;;;;;;;14.65;77.56;100933.50;4947747;29;20451;-77
2023/03/18 09:22:33;;;;;;;9.60;6.15;;;;;;;14.67;77.69;100933.34;4949183;28;20069;-77
2023/03/18 09:24:59;;;;;;;11.70;6.60;;;;;;;14.62;76.59;100925.53;4959848;28;20437;-77
2023/03/18 09:27:24;;;;;;;11.50;6.55;;;;;;;14.61;76.75;100925.69;4950466;28;20049;-76
2023/03/18 09:29:50;;;;;;;9.35;6.15;;;;;;;14.58;76.76;100935.03;4969186;28;20399;-77
2023/03/18 09:32:16;;;;;;;12.05;6.15;;;;;;;14.51;76.55;100929.25;4949207;28;20458;-77
2023/03/18 09:34:43;;;;;;;9.93;6.20;;;;;;;14.44;77.21;100933.47;4949699;29;20035;-77
2023/03/18 09:37:09;;;;;;;9.25;6.25;;;;;;;14.49;77.44;100933.97;4948995;29;20502;-77
2023/03/18 09:39:36;;;;;;;11.48;6.40;;;;;;;14.66;79.27;100935.22;4947470;28;20050;-77
2023/03/18 09:42:38;;;;;;;9.90;6.10;;;;;;;14.88;78.33;100944.28;4963342;28;20475;-76
2023/03/18 09:45:53;;;;;;;10.57;6.35;;;;;;;15.16;77.54;100915.28;4949567;28;20502;-76
2023/03/18 09:48:55;;;;;;;10.70;7.15;;;;;;;15.48;77.84;100921.44;4885028;29;20111;-76
2023/03/18 09:51:46;;;;;;;14.43;5.65;;;;;;;15.83;76.70;100917.31;4956609;28;20030;-76
2023/03/18 09:54:19;;;;;;;7.90;4.47;;;;;;;16.01;74.37;100926.56;4966426;28;20184;-76
2023/03/18 09:56:44;;;;;;;;;;;;;;;16.24;75.74;100927.13;4966600;28;20484;-76
2023/03/18 09:59:53;;;;;;;10.90;4.45;;;;;;;16.54;73.42;100927.94;4967126;28;20008;-76
2023/03/18 10:02:45;;;;;;;9.20;4.30;;;;;;;16.73;71.57;100924.31;4943723;28;20055;-76
2023/03/18 10:05:22;;;;;;;8.32;4.07;;;;;;;16.86;70.45;100922.13;4950631;28;20043;-76
2023/03/18 10:07:53;;;;;;;9.88;4.78;;;;;;;17.25;72.07;100921.94;4946465;28;20602;-76
2023/03/18 10:10:36;;;;;;;9.47;4.97;;;;;;;17.47;70.39;100926.16;4960557;28;20494;-75
2023/03/18 10:13:13;;;;;;;7.93;3.88;;;;;;;17.62;66.97;100930.13;4968224;28;20463;-76
2023/03/18 10:15:46;;;;;;;7.60;3.75;;;;;;;17.75;66.28;100929.78;4944983;29;20043;-76
2023/03/18 10:18:26;;;;;;;7.78;3.70;;;;;;;17.88;66.36;100924.75;4947609;28;20031;-77
2023/03/18 10:21:32;;;;;;;6.78;3.58;;;;;;;18.24;67.61;100931.13;4947552;29;20051;-76
2023/03/18 10:24:04;;;;;;;8.60;3.33;;;;;;;18.45;64.45;100917.00;4949778;28;20043;-75
2023/03/18 10:26:32;;;;;;;4.93;3.03;;;;;;;18.53;65.28;100928.09;4946676;28;20089;-76
2023/03/18 10:29:20;;;;;;;8.18;3.42;;;;;;;18.56;62.34;100924.16;4949564;28;20468;-75
2023/03/18 10:32:05;;;;;;;8.32;2.85;;;;;;;18.45;62.64;100927.16;4946934;28;20039;-76
2023/03/18 10:34:43;;;;;;;7.65;3.40;;;;;;;18.14;63.47;100933.13;4954823;28;20085;-76
2023/03/18 10:37:24;;;;;;;6.60;3.10;;;;;;;18.09;63.96;100932.69;4950656;28;20410;-76
2023/03/18 10:39:51;;;;;;;8.07;3.50;;;;;;;18.19;63.32;100919.72;4954961;28;20042;-75
2023/03/18 10:42:25;;;;;;;4.90;2.88;;;;;;;18.23;61.96;100929.41;4945715;28;20483;-76
2023/03/18 10:44:51;;;;;;;5.90;3.58;;;;;;;18.41;62.24;100926.59;4947339;29;20079;-75
2023/03/18 10:47:29;;;;;;;7.55;3.30;;;;;;;18.73;65.36;100926.03;4931821;28;20055;-76
2023/03/18 10:50:19;;;;;;;4.38;3.17;;;;;;;18.88;62.10;100920.75;4966585;28;20442;-75
2023/03/18 10:53:19;;;;;;;6.95;2.78;;;;;;;18.80;61.70;100923.50;4946166;28;20038;-76
2023/03/18 10:56:03;;;;;;;5.13;2.60;;;;;;;18.69;61.78;100905.31;4946738;29;20365;-75
2023/03/18 10:58:28;;;;;;;7.85;2.58;;;;;;;18.66;61.24;100913.91;4947237;28;20039;-76
2023/03/18 11:00:54;;;;;;;6.38;2.95;;;;;;;18.60;59.43;100912.66;4946451;28;20500;-75
2023/03/18 11:03:26;;;;;;;6.07;3.03;;;;;;;18.51;61.08;100915.50;4932538;28;20467;-75
2023/03/18 11:05:54;;;;;;;7.55;3.10;;;;;;;18.39;60.35;100912.16;4966424;28;20042;-75
2023/03/18 11:08:33;;;;;;;6.88;2.33;;;;;;;18.29;61.82;100908.63;4946256;29;20089;-76
2023/03/18 11:11:13;;;;;;;4.25;2.22;;;;;;;18.25;60.92;100910.81;4970278;28;20049;-75
2023/03/18 11:13:45;;;;;;;5.15;2.63;;;;;;;18.11;60.58;100922.41;4959501;28;20090;-75
2023/03/18 11:16:21;;;;;;;7.88;2.65;;;;;;;18.06;61.61;100919.25;4957822;28;20039;-75
2023/03/18 11:18:50;;;;;;;5.95;2.10;;;;;;;17.88;60.97;100913.75;4952263;29;20065;-75
2023/03/18 11:21:16;;;;;;;10.20;2.30;;;;;;;17.78;61.36;100907.47;4951847;29;20551;-75
2023/03/18 11:24:09;;;;;;;3.65;1.90;;;;;;;17.64;61.99;100917.09;4950316;28;20118;-75